Sunday, October 21, 2018, 6:14 AM EDT
Back to Local

KMGJ, Montgomery Orange Co Airport

Location: Montgomery, NY, United States Lat: 41.517
Local Time: 6:14 AM EDT (10:14 GMT) Lon: -74.267
Time Zone: US/Eastern Elev: 354 ft

Show me the last for .
Show Decoded

2018-10-21 05:54 METAR KMGJ 210954Z AUTO 30007KT 10SM OVC070 07/03 A2973 RMK AO2 PRESRR SLP069
                 T00720033 =
2018-10-21 04:54 METAR KMGJ 210854Z AUTO 30007KT 10SM OVC060 07/04 A2968 RMK AO2 RAB19E34 SLP051
                 P0000 60000 T00720039 53022 =
2018-10-21 03:54 METAR KMGJ 210754Z AUTO 31008KT 10SM OVC060 08/04 A2964 RMK AO2 SLP037 T00780044
                 =
2018-10-21 02:54 METAR KMGJ 210654Z AUTO 31005KT 10SM BKN049 OVC055 07/06 A2963 RMK AO2 RAE04
                 SLP035 P0000 T00720056 =
2018-10-21 01:54 METAR KMGJ 210554Z AUTO 03008KT 10SM -RA BKN035 OVC045 08/06 A2962 RMK AO2
                 SLP029 P0004 60009 T00780061 10106 20078 58003 =
2018-10-21 01:31 METAR KMGJ 210531Z AUTO 35007KT 10SM -RA FEW019 SCT027 OVC035 08/07 A2963 RMK
                 AO2 P0003 T00830067 =
2018-10-21 01:01 METAR KMGJ 210501Z AUTO 33006KT 8SM -RA BKN024 OVC035 08/07 A2963 RMK AO2 P0000
                 T00830072 =
2018-10-21 00:54 METAR KMGJ 210454Z AUTO 31006KT 10SM -RA SCT024 OVC035 09/07 A2963 RMK AO2
                 SLP035 P0002 T00890072 401780083 =
2018-10-21 00:51 METAR KMGJ 210451Z AUTO 31006KT 10SM -RA SCT026 OVC035 09/07 A2963 RMK AO2 P0001
                 =
2018-10-21 00:42 METAR KMGJ 210442Z AUTO 31003KT 10SM -RA BKN026 OVC035 09/07 A2963 RMK AO2 P0001
                 T00890072 =
2018-10-20 23:54 METAR KMGJ 210354Z AUTO 00000KT 9SM -RA OVC042 09/07 A2963 RMK AO2 SLP032 P0003
                 T00890067 =
2018-10-20 22:54 METAR KMGJ 210254Z AUTO 26003KT 10SM -RA BKN048 OVC065 09/07 A2963 RMK AO2 RAB22
                 SLP033 P0000 60000 T00890067 53004 =
2018-10-20 21:54 METAR KMGJ 210154Z AUTO 00000KT 10SM OVC070 09/06 A2961 RMK AO2 SLP028 T00940056
                 =
2018-10-20 20:54 METAR KMGJ 210054Z AUTO 20004KT 10SM OVC060 09/06 A2962 RMK AO2 SLP029 T00890061
                 =
2018-10-20 19:54 METAR KMGJ 202354Z AUTO 00000KT 10SM SCT070 BKN080 BKN120 11/05 A2962 RMK AO2
                 SLP029 T01060050 10178 20094 53008 =
2018-10-20 18:54 METAR KMGJ 202254Z AUTO 30003KT 10SM CLR 11/05 A2961 RMK AO2 SLP025 T01110050 =
2018-10-20 17:54 METAR KMGJ 202154Z AUTO 00000KT 10SM SCT075 12/06 A2958 RMK AO2 SLP018 T01170061
                 =
2018-10-20 16:54 METAR KMGJ 202054Z AUTO 31005KT 10SM CLR 15/06 A2959 RMK AO2 SLP021 T01500056
                 56010 =
2018-10-20 15:54 METAR KMGJ 201954Z AUTO 29007KT 10SM FEW046 BKN060 OVC080 16/06 A2960 RMK AO2
                 SLP023 T01560061 =
2018-10-20 14:54 METAR KMGJ 201854Z AUTO 27009KT 10SM SCT070 16/07 A2961 RMK AO2 SLP024 T01610067
                 =
2018-10-20 13:54 METAR KMGJ 201754Z AUTO 26015G23KT 10SM SCT046 OVC060 17/07 A2962 RMK AO2 SLP030
                 T01720067 10178 20106 58022 =
2018-10-20 12:54 METAR KMGJ 201654Z AUTO 28010G19KT 10SM SCT042 BKN050 17/08 A2965 RMK AO2 SLP041
                 T01670078 =
2018-10-20 11:54 METAR KMGJ 201554Z AUTO 27011G19KT 10SM BKN043 16/08 A2968 RMK AO2 SLP049
                 T01560078 =
2018-10-20 11:03 METAR KMGJ 201503Z AUTO 26009KT 10SM FEW026 BKN031 14/08 A2969 RMK AO2 T01440083
                 =
2018-10-20 10:54 METAR KMGJ 201454Z AUTO 27010G19KT 10SM BKN028 14/09 A2969 RMK AO2 SLP054
                 T01390089 58005 =
2018-10-20 10:18 METAR KMGJ 201418Z AUTO 22010KT 10SM FEW019 BKN024 BKN037 13/10 A2969 RMK AO2
                 T01330100 =
2018-10-20 09:54 METAR KMGJ 201354Z AUTO 22008KT 10SM FEW013 BKN031 OVC039 13/10 A2971 RMK AO2
                 SLP060 T01280100 =
2018-10-20 09:44 METAR KMGJ 201344Z AUTO 21009KT 10SM FEW013 SCT021 BKN031 12/10 A2971 RMK AO2
                 T01220100 =
2018-10-20 09:37 METAR KMGJ 201337Z AUTO 22010KT 10SM FEW013 SCT024 BKN029 12/10 A2971 RMK AO2
                 T01220100 =
2018-10-20 08:54 METAR KMGJ 201254Z AUTO 22007KT 8SM FEW009 SCT032 OVC080 12/10 A2971 RMK AO2
                 SLP061 T01170100 =
2018-10-20 07:54 METAR KMGJ 201154Z AUTO 21012KT 8SM BKN034 OVC075 11/09 A2970 RMK AO2 SLP059
                 60003 70003 T01060089 10106 20100 56006 =
2018-10-20 06:54 METAR KMGJ 201054Z AUTO 22008KT 10SM BKN039 OVC047 10/09 A2971 RMK AO2 SLP059
                 T01000089 =

Support USWX by starting your Amazon purchase here.